Bolivar, PA (15923)

6:24 AM EDT on July 26, 2016 (GMT -0400)
Shannon Creek New Florence | | Change Station

Elev 1165 ft 40.37 °N, 79.07 °W | Updated 6 minutes ago

Clear
Clear
64.2 °F
Feels Like 64.2 °F
N
0.0
Wind Variable Wind from South

Today
High -- | Low -- °F
--% Chance of Precip.
Yesterday
High -- | Low -- °F
Precip. -- in
Pressure 30.02 in
Visibility 5.0 miles
Clouds Clear
Dew Point 61 °F
Humidity 90%
Rainfall 0.00 in
Snow Depth Not available.
6:09 AM 8:36 PM
Waning Gibbous, 56% visible
METAR KLBE 260955Z AUTO 00000KT 5SM BR CLR 20/20 A3002 RMK AO2
Pressure 30.02 in
Visibility 5.0 miles
Clouds Clear
Dew Point 61 °F
Humidity 90%
Rainfall 0.00 in
Snow Depth Not available.
6:09 AM 8:36 PM
Waning Gibbous, 56% visible
METAR KLBE 260955Z AUTO 00000KT 5SM BR CLR 20/20 A3002 RMK AO2

10-Day Weather Forecast

Almanac

Astronomy

Jul. 26, 2016 Rise Set
Actual Time
Civil Twilight
Nautical Twilight
Astronomical Twilight
Moon
Length of Visible Light
Length of Day
Tomorrow will be .
, % of the Moon is Illuminated

Today's Extremes

State Highs State Lows

Community

WunderPhotos

Upload Photos

1,927,557 photos uploaded!

WunderBlog® & News

Nearby

Air Quality

  Air Quality AQ Index Pollutant
Not available.

Snow Depth

Station Depth Elevation

Earthquake Activity

City Distance Mag. Time & Date
Minimum magnitude displayed is 2.5.

Coastal Water Temperatures

Place Temperature

Stations

Nearby Weather Stations

Station Location Temp. Windchill Dew Point Humidity Wind Precip. Elev Updated Type
                   

Watches & Warnings

There are currently no watches in effect.